sensor_id;sensor_type;location;lat;lon;timestamp;pressure;altitude;pressure_sealevel;temperature;humidity
83104;BME280;72975;48.134;11.630;2024-01-15T00:01:17;94220.91;;;-0.34;75.63
83104;BME280;72975;48.134;11.630;2024-01-15T00:04:13;94209.00;;;-0.41;75.59
83104;BME280;72975;48.134;11.630;2024-01-15T00:07:49;94215.84;;;-0.18;75.07
83104;BME280;72975;48.134;11.630;2024-01-15T00:11:06;94221.88;;;-0.24;75.34
83104;BME280;72975;48.134;11.630;2024-01-15T00:13:37;94232.69;;;-0.22;75.36
83104;BME280;72975;48.134;11.630;2024-01-15T00:16:42;94230.56;;;-0.25;75.05
83104;BME280;72975;48.134;11.630;2024-01-15T00:19:48;94233.22;;;-0.20;75.28
83104;BME280;72975;48.134;11.630;2024-01-15T00:23:07;94223.88;;;-0.26;74.87
83104;BME280;72975;48.134;11.630;2024-01-15T00:26:12;94225.53;;;-0.20;74.61
83104;BME280;72975;48.134;11.630;2024-01-15T00:29:30;94239.69;;;-0.17;74.55
83104;BME280;72975;48.134;11.630;2024-01-15T00:32:24;94233.56;;;-0.16;74.74
83104;BME280;72975;48.134;11.630;2024-01-15T00:35:35;94222.53;;;-0.17;74.82
83104;BME280;72975;48.134;11.630;2024-01-15T00:38:46;94232.91;;;-0.23;74.88
83104;BME280;72975;48.134;11.630;2024-01-15T00:42:33;94240.69;;;-0.18;74.97
83104;BME280;72975;48.134;11.630;2024-01-15T00:45:33;94248.28;;;-0.23;75.01
83104;BME280;72975;48.134;11.630;2024-01-15T00:48:06;94251.53;;;-0.28;75.02
83104;BME280;72975;48.134;11.630;2024-01-15T00:50:58;94248.41;;;-0.30;75.03
83104;BME280;72975;48.134;11.630;2024-01-15T00:53:43;94255.53;;;-0.32;74.53
83104;BME280;72975;48.134;11.630;2024-01-15T00:56:10;94261.34;;;-0.25;74.49
83104;BME280;72975;48.134;11.630;2024-01-15T00:59:03;94259.13;;;-0.33;74.43
83104;BME280;72975;48.134;11.630;2024-01-15T01:01:57;94257.00;;;-0.36;73.79
83104;BME280;72975;48.134;11.630;2024-01-15T01:04:40;94254.44;;;-0.36;73.83
83104;BME280;72975;48.134;11.630;2024-01-15T01:07:41;94259.81;;;-0.38;73.90
83104;BME280;72975;48.134;11.630;2024-01-15T01:10:40;94264.19;;;-0.61;73.86
83104;BME280;72975;48.134;11.630;2024-01-15T01:13:27;94267.75;;;-0.62;73.87
83104;BME280;72975;48.134;11.630;2024-01-15T01:16:09;94257.63;;;-0.92;72.91
83104;BME280;72975;48.134;11.630;2024-01-15T01:18:50;94260.97;;;-0.92;71.90
83104;BME280;72975;48.134;11.630;2024-01-15T01:21:21;94264.19;;;-0.96;71.60
83104;BME280;72975;48.134;11.630;2024-01-15T01:23:58;94256.63;;;-1.03;71.00
83104;BME280;72975;48.134;11.630;2024-01-15T01:26:34;94268.88;;;-1.05;71.05
83104;BME280;72975;48.134;11.630;2024-01-15T01:29:17;94267.41;;;-1.13;70.29
83104;BME280;72975;48.134;11.630;2024-01-15T01:32:09;94273.66;;;-1.08;70.23
83104;BME280;72975;48.134;11.630;2024-01-15T01:35:19;94263.19;;;-1.07;69.77
83104;BME280;72975;48.134;11.630;2024-01-15T01:38:18;94281.19;;;-1.25;70.40
83104;BME280;72975;48.134;11.630;2024-01-15T01:41:27;94272.75;;;-1.14;69.67
83104;BME280;72975;48.134;11.630;2024-01-15T01:44:04;94282.41;;;-1.28;69.59
83104;BME280;72975;48.134;11.630;2024-01-15T01:46:42;94287.84;;;-1.36;69.79
83104;BME280;72975;48.134;11.630;2024-01-15T01:49:42;94284.31;;;-1.35;69.53
83104;BME280;72975;48.134;11.630;2024-01-15T01:52:28;94280.97;;;-1.35;69.03
83104;BME280;72975;48.134;11.630;2024-01-15T01:55:27;94283.38;;;-1.40;69.59
83104;BME280;72975;48.134;11.630;2024-01-15T01:58:59;94284.97;;;-1.28;68.71
83104;BME280;72975;48.134;11.630;2024-01-15T02:02:12;94299.31;;;-1.27;68.65
83104;BME280;72975;48.134;11.630;2024-01-15T02:05:23;94282.75;;;-1.36;68.56
83104;BME280;72975;48.134;11.630;2024-01-15T02:08:37;94278.81;;;-1.38;68.48
83104;BME280;72975;48.134;11.630;2024-01-15T02:11:20;94290.19;;;-1.34;68.03
83104;BME280;72975;48.134;11.630;2024-01-15T02:13:55;94287.50;;;-1.39;68.18
83104;BME280;72975;48.134;11.630;2024-01-15T02:16:44;94294.94;;;-1.50;68.47
83104;BME280;72975;48.134;11.630;2024-01-15T02:20:11;94287.81;;;-1.48;68.69
83104;BME280;72975;48.134;11.630;2024-01-15T02:32:58;94292.28;;;-1.43;68.48
83104;BME280;72975;48.134;11.630;2024-01-15T02:35:40;94304.63;;;-1.52;68.49
83104;BME280;72975;48.134;11.630;2024-01-15T02:38:11;94310.84;;;-1.48;68.65
83104;BME280;72975;48.134;11.630;2024-01-15T02:47:33;94306.03;;;-1.56;68.98
83104;BME280;72975;48.134;11.630;2024-01-15T02:50:11;94319.88;;;-1.45;69.26
83104;BME280;72975;48.134;11.630;2024-01-15T02:52:55;94321.59;;;-1.57;69.26
83104;BME280;72975;48.134;11.630;2024-01-15T02:55:43;94327.16;;;-1.60;69.68
83104;BME280;72975;48.134;11.630;2024-01-15T02:58:54;94310.47;;;-1.63;69.59
83104;BME280;72975;48.134;11.630;2024-01-15T03:01:49;94313.16;;;-1.88;70.59
83104;BME280;72975;48.134;11.630;2024-01-15T03:04:33;94314.09;;;-1.70;70.18
83104;BME280;72975;48.134;11.630;2024-01-15T03:07:37;94302.88;;;-1.69;70.26
83104;BME280;72975;48.134;11.630;2024-01-15T03:10:53;94311.03;;;-1.61;69.90
83104;BME280;72975;48.134;11.630;2024-01-15T03:13:44;94308.56;;;-1.67;69.73
83104;BME280;72975;48.134;11.630;2024-01-15T03:16:28;94314.25;;;-1.65;70.03
83104;BME280;72975;48.134;11.630;2024-01-15T03:23:20;94313.38;;;-1.59;69.44
83104;BME280;72975;48.134;11.630;2024-01-15T03:29:04;94302.72;;;-1.56;69.89
83104;BME280;72975;48.134;11.630;2024-01-15T03:31:50;94299.81;;;-1.60;69.08
83104;BME280;72975;48.134;11.630;2024-01-15T03:34:48;94293.69;;;-1.59;69.07
83104;BME280;72975;48.134;11.630;2024-01-15T03:38:07;94297.91;;;-1.64;68.67
83104;BME280;72975;48.134;11.630;2024-01-15T03:41:29;94302.50;;;-1.55;68.54
83104;BME280;72975;48.134;11.630;2024-01-15T03:48:26;94308.13;;;-1.64;68.45
83104;BME280;72975;48.134;11.630;2024-01-15T03:51:34;94311.47;;;-1.64;68.94
83104;BME280;72975;48.134;11.630;2024-01-15T03:59:07;94300.59;;;-1.59;68.68
83104;BME280;72975;48.134;11.630;2024-01-15T04:02:07;94296.13;;;-1.64;68.67
83104;BME280;72975;48.134;11.630;2024-01-15T04:05:19;94307.88;;;-1.74;68.79
83104;BME280;72975;48.134;11.630;2024-01-15T04:08:39;94288.72;;;-1.54;68.27
83104;BME280;72975;48.134;11.630;2024-01-15T04:17:48;94281.44;;;-1.68;68.03
83104;BME280;72975;48.134;11.630;2024-01-15T04:20:29;94276.31;;;-1.68;67.78
83104;BME280;72975;48.134;11.630;2024-01-15T04:23:16;94282.53;;;-1.76;68.40
83104;BME280;72975;48.134;11.630;2024-01-15T04:28:41;94289.00;;;-1.62;68.05
83104;BME280;72975;48.134;11.630;2024-01-15T04:31:57;94284.63;;;-1.73;68.28
83104;BME280;72975;48.134;11.630;2024-01-15T04:34:37;94291.56;;;-1.62;68.16
83104;BME280;72975;48.134;11.630;2024-01-15T04:37:17;94301.03;;;-1.62;67.63
83104;BME280;72975;48.134;11.630;2024-01-15T04:39:54;94293.69;;;-1.59;67.97
83104;BME280;72975;48.134;11.630;2024-01-15T04:42:34;94288.22;;;-1.74;68.51
83104;BME280;72975;48.134;11.630;2024-01-15T04:45:21;94285.69;;;-1.62;68.30
83104;BME280;72975;48.134;11.630;2024-01-15T04:48:22;94278.88;;;-1.68;68.39
83104;BME280;72975;48.134;11.630;2024-01-15T04:51:39;94277.44;;;-1.64;68.39
83104;BME280;72975;48.134;11.630;2024-01-15T04:54:10;94279.09;;;-1.70;68.11
83104;BME280;72975;48.134;11.630;2024-01-15T04:56:59;94279.50;;;-1.73;68.14
83104;BME280;72975;48.134;11.630;2024-01-15T04:59:55;94282.31;;;-1.74;68.34
83104;BME280;72975;48.134;11.630;2024-01-15T05:02:49;94279.66;;;-1.68;68.28
83104;BME280;72975;48.134;11.630;2024-01-15T05:05:40;94282.09;;;-1.61;67.97
83104;BME280;72975;48.134;11.630;2024-01-15T05:08:31;94280.53;;;-1.74;68.18
83104;BME280;72975;48.134;11.630;2024-01-15T05:11:35;94288.63;;;-1.77;68.53
83104;BME280;72975;48.134;11.630;2024-01-15T05:14:37;94256.50;;;-1.73;68.21
83104;BME280;72975;48.134;11.630;2024-01-15T05:17:27;94270.22;;;-1.67;68.37
83104;BME280;72975;48.134;11.630;2024-01-15T05:20:29;94268.97;;;-1.76;68.31
83104;BME280;72975;48.134;11.630;2024-01-15T05:23:34;94277.25;;;-1.63;68.19
83104;BME280;72975;48.134;11.630;2024-01-15T05:27:01;94285.13;;;-1.64;67.78
83104;BME280;72975;48.134;11.630;2024-01-15T05:29:58;94273.97;;;-1.70;67.47
83104;BME280;72975;48.134;11.630;2024-01-15T05:35:55;94287.97;;;-1.72;67.59
83104;BME280;72975;48.134;11.630;2024-01-15T05:38:28;94282.84;;;-1.72;67.92
83104;BME280;72975;48.134;11.630;2024-01-15T05:45:35;94276.31;;;-1.68;68.04
83104;BME280;72975;48.134;11.630;2024-01-15T05:48:44;94272.56;;;-1.66;67.89
83104;BME280;72975;48.134;11.630;2024-01-15T05:56:00;94278.53;;;-1.72;67.97
83104;BME280;72975;48.134;11.630;2024-01-15T05:58:47;94277.75;;;-1.72;67.73
83104;BME280;72975;48.134;11.630;2024-01-15T06:01:37;94283.94;;;-1.80;68.05
83104;BME280;72975;48.134;11.630;2024-01-15T06:04:30;94270.84;;;-1.72;67.95
83104;BME280;72975;48.134;11.630;2024-01-15T06:07:29;94270.06;;;-1.72;67.62
83104;BME280;72975;48.134;11.630;2024-01-15T06:10:30;94281.06;;;-1.72;67.69
83104;BME280;72975;48.134;11.630;2024-01-15T06:13:34;94278.75;;;-1.73;67.88
83104;BME280;72975;48.134;11.630;2024-01-15T06:16:18;94272.41;;;-1.71;67.63
83104;BME280;72975;48.134;11.630;2024-01-15T06:18:59;94279.31;;;-1.71;67.49
83104;BME280;72975;48.134;11.630;2024-01-15T06:21:54;94276.66;;;-1.65;67.26
83104;BME280;72975;48.134;11.630;2024-01-15T06:24:21;94281.16;;;-1.49;68.27
83104;BME280;72975;48.134;11.630;2024-01-15T06:26:49;94281.59;;;-1.52;67.81
83104;BME280;72975;48.134;11.630;2024-01-15T06:29:16;94278.41;;;-1.35;67.60
83104;BME280;72975;48.134;11.630;2024-01-15T06:31:46;94270.03;;;-1.54;67.27
83104;BME280;72975;48.134;11.630;2024-01-15T06:34:26;94277.56;;;-1.59;67.25
83104;BME280;72975;48.134;11.630;2024-01-15T06:36:55;94284.13;;;-1.63;67.00
83104;BME280;72975;48.134;11.630;2024-01-15T06:39:52;94273.78;;;-1.57;66.94
83104;BME280;72975;48.134;11.630;2024-01-15T06:42:56;94271.66;;;-1.60;66.25
83104;BME280;72975;48.134;11.630;2024-01-15T06:45:54;94274.44;;;-1.61;66.90
83104;BME280;72975;48.134;11.630;2024-01-15T06:48:46;94284.16;;;-1.52;66.64
83104;BME280;72975;48.134;11.630;2024-01-15T06:51:30;94292.25;;;-1.55;66.36
83104;BME280;72975;48.134;11.630;2024-01-15T06:54:20;94282.69;;;-1.59;66.65
83104;BME280;72975;48.134;11.630;2024-01-15T06:57:06;94277.13;;;-1.56;66.71
83104;BME280;72975;48.134;11.630;2024-01-15T06:59:50;94288.78;;;-1.60;66.36
83104;BME280;72975;48.134;11.630;2024-01-15T07:02:51;94283.66;;;-1.60;66.17
83104;BME280;72975;48.134;11.630;2024-01-15T07:05:36;94271.44;;;-1.58;66.49
83104;BME280;72975;48.134;11.630;2024-01-15T07:08:41;94283.47;;;-1.59;66.48
83104;BME280;72975;48.134;11.630;2024-01-15T07:11:22;94285.59;;;-1.56;67.04
83104;BME280;72975;48.134;11.630;2024-01-15T07:14:03;94289.03;;;-1.50;66.93
83104;BME280;72975;48.134;11.630;2024-01-15T07:17:08;94283.28;;;-1.45;66.75
83104;BME280;72975;48.134;11.630;2024-01-15T07:20:13;94260.69;;;-1.49;67.12
83104;BME280;72975;48.134;11.630;2024-01-15T07:22:51;94261.69;;;-1.50;67.04
83104;BME280;72975;48.134;11.630;2024-01-15T07:28:11;94279.28;;;-1.41;67.09
83104;BME280;72975;48.134;11.630;2024-01-15T07:30:54;94268.13;;;-1.47;67.84
83104;BME280;72975;48.134;11.630;2024-01-15T07:33:40;94286.19;;;-1.42;67.83
83104;BME280;72975;48.134;11.630;2024-01-15T07:36:30;94278.56;;;-1.60;68.45
83104;BME280;72975;48.134;11.630;2024-01-15T07:39:19;94276.22;;;-1.62;68.87
83104;BME280;72975;48.134;11.630;2024-01-15T07:41:58;94258.88;;;-1.60;69.05
83104;BME280;72975;48.134;11.630;2024-01-15T07:44:47;94258.25;;;-1.43;68.77
83104;BME280;72975;48.134;11.630;2024-01-15T07:47:21;94283.94;;;-1.38;68.61
83104;BME280;72975;48.134;11.630;2024-01-15T07:50:25;94264.72;;;-1.41;69.05
83104;BME280;72975;48.134;11.630;2024-01-15T07:52:54;94271.06;;;-1.32;68.62
83104;BME280;72975;48.134;11.630;2024-01-15T07:55:26;94277.28;;;-1.39;68.70
83104;BME280;72975;48.134;11.630;2024-01-15T07:58:04;94271.06;;;-1.43;69.27
83104;BME280;72975;48.134;11.630;2024-01-15T08:00:47;94278.28;;;-1.29;68.76
83104;BME280;72975;48.134;11.630;2024-01-15T08:03:59;94276.38;;;-1.45;69.25
83104;BME280;72975;48.134;11.630;2024-01-15T08:06:37;94248.91;;;-1.38;69.25
83104;BME280;72975;48.134;11.630;2024-01-15T08:09:36;94250.03;;;-1.34;69.23
83104;BME280;72975;48.134;11.630;2024-01-15T08:12:48;94249.59;;;-1.31;69.05
83104;BME280;72975;48.134;11.630;2024-01-15T08:15:49;94239.34;;;-1.54;69.74
83104;BME280;72975;48.134;11.630;2024-01-15T08:18:42;94233.13;;;-1.23;69.27
83104;BME280;72975;48.134;11.630;2024-01-15T08:21:35;94248.59;;;-1.30;69.31
83104;BME280;72975;48.134;11.630;2024-01-15T08:24:29;94244.94;;;-1.22;68.97
83104;BME280;72975;48.134;11.630;2024-01-15T08:26:57;94245.03;;;-1.29;69.25
83104;BME280;72975;48.134;11.630;2024-01-15T08:29:32;94243.16;;;-1.22;69.34
83104;BME280;72975;48.134;11.630;2024-01-15T08:32:20;94237.59;;;-1.30;69.54
83104;BME280;72975;48.134;11.630;2024-01-15T08:35:12;94229.22;;;-1.26;69.32
83104;BME280;72975;48.134;11.630;2024-01-15T08:37:44;94230.38;;;-1.22;69.07
83104;BME280;72975;48.134;11.630;2024-01-15T08:40:12;94240.91;;;-1.18;68.97
83104;BME280;72975;48.134;11.630;2024-01-15T08:42:42;94244.81;;;-1.16;68.67
83104;BME280;72975;48.134;11.630;2024-01-15T08:45:48;94242.81;;;-1.25;68.53
83104;BME280;72975;48.134;11.630;2024-01-15T08:48:30;94260.38;;;-1.29;68.21
83104;BME280;72975;48.134;11.630;2024-01-15T08:51:09;94243.03;;;-1.15;67.51
83104;BME280;72975;48.134;11.630;2024-01-15T08:53:56;94255.84;;;-1.15;68.23
83104;BME280;72975;48.134;11.630;2024-01-15T08:56:27;94251.63;;;-1.21;68.30
83104;BME280;72975;48.134;11.630;2024-01-15T08:59:04;94251.41;;;-1.20;68.43
83104;BME280;72975;48.134;11.630;2024-01-15T09:01:43;94249.28;;;-1.23;68.53
83104;BME280;72975;48.134;11.630;2024-01-15T09:04:32;94250.16;;;-1.17;68.66
83104;BME280;72975;48.134;11.630;2024-01-15T09:07:42;94251.06;;;-1.23;68.85
83104;BME280;72975;48.134;11.630;2024-01-15T09:10:41;94247.59;;;-1.17;68.74
83104;BME280;72975;48.134;11.630;2024-01-15T09:13:21;94257.53;;;-1.09;68.28
83104;BME280;72975;48.134;11.630;2024-01-15T09:16:08;94249.72;;;-1.02;68.41
83104;BME280;72975;48.134;11.630;2024-01-15T09:18:40;94249.94;;;-1.16;68.35
83104;BME280;72975;48.134;11.630;2024-01-15T09:21:34;94250.94;;;-1.05;68.61
83104;BME280;72975;48.134;11.630;2024-01-15T09:24:03;94249.94;;;-1.04;68.24
83104;BME280;72975;48.134;11.630;2024-01-15T09:26:40;94242.91;;;-0.97;68.18
83104;BME280;72975;48.134;11.630;2024-01-15T09:29:23;94242.81;;;-1.02;67.79
83104;BME280;72975;48.134;11.630;2024-01-15T09:31:54;94263.09;;;-1.00;67.74
83104;BME280;72975;48.134;11.630;2024-01-15T09:34:50;94250.16;;;-0.94;67.82
83104;BME280;72975;48.134;11.630;2024-01-15T09:37:21;94258.75;;;-1.00;67.34
83104;BME280;72975;48.134;11.630;2024-01-15T09:40:17;94263.41;;;-0.97;67.51
83104;BME280;72975;48.134;11.630;2024-01-15T09:43:04;94255.19;;;-0.87;67.13
83104;BME280;72975;48.134;11.630;2024-01-15T09:45:42;94251.72;;;-0.81;66.31
83104;BME280;72975;48.134;11.630;2024-01-15T09:48:15;94253.94;;;-0.96;66.49
83104;BME280;72975;48.134;11.630;2024-01-15T09:50:51;94262.53;;;-0.91;66.58
83104;BME280;72975;48.134;11.630;2024-01-15T09:53:42;94263.41;;;-0.85;65.81
83104;BME280;72975;48.134;11.630;2024-01-15T09:56:14;94254.94;;;-0.86;66.00
83104;BME280;72975;48.134;11.630;2024-01-15T09:58:53;94262.84;;;-0.76;65.58
83104;BME280;72975;48.134;11.630;2024-01-15T10:01:42;94262.97;;;-0.82;65.60
83104;BME280;72975;48.134;11.630;2024-01-15T10:04:29;94242.25;;;-0.69;64.88
83104;BME280;72975;48.134;11.630;2024-01-15T10:07:07;94242.03;;;-0.67;64.61
83104;BME280;72975;48.134;11.630;2024-01-15T10:09:53;94245.59;;;-0.68;64.69
83104;BME280;72975;48.134;11.630;2024-01-15T10:12:42;94235.44;;;-0.63;64.67
83104;BME280;72975;48.134;11.630;2024-01-15T10:15:44;94238.13;;;-0.58;64.96
83104;BME280;72975;48.134;11.630;2024-01-15T10:18:39;94220.84;;;-0.63;63.61
83104;BME280;72975;48.134;11.630;2024-01-15T10:21:32;94227.53;;;-0.62;64.50
83104;BME280;72975;48.134;11.630;2024-01-15T10:27:14;94224.88;;;-0.55;64.42
83104;BME280;72975;48.134;11.630;2024-01-15T10:30:10;94210.03;;;-0.53;64.83
83104;BME280;72975;48.134;11.630;2024-01-15T10:33:07;94214.16;;;-0.52;65.08
83104;BME280;72975;48.134;11.630;2024-01-15T10:48:13;94188.53;;;-0.52;64.65
83104;BME280;72975;48.134;11.630;2024-01-15T10:51:01;94202.44;;;-0.48;64.95
83104;BME280;72975;48.134;11.630;2024-01-15T10:54:07;94204.09;;;-0.42;64.11
83104;BME280;72975;48.134;11.630;2024-01-15T10:57:09;94203.75;;;-0.34;64.41
83104;BME280;72975;48.134;11.630;2024-01-15T10:59:59;94199.56;;;-0.63;65.11
83104;BME280;72975;48.134;11.630;2024-01-15T11:02:44;94179.63;;;-0.61;64.79
83104;BME280;72975;48.134;11.630;2024-01-15T11:05:41;94182.97;;;-0.21;64.18
83104;BME280;72975;48.134;11.630;2024-01-15T11:08:34;94183.69;;;-0.09;64.43
83104;BME280;72975;48.134;11.630;2024-01-15T11:11:23;94167.19;;;-0.01;64.15
83104;BME280;72975;48.134;11.630;2024-01-15T11:14:11;94185.34;;;-0.03;64.66
83104;BME280;72975;48.134;11.630;2024-01-15T11:17:18;94177.78;;;-0.09;64.22
83104;BME280;72975;48.134;11.630;2024-01-15T11:20:00;94188.47;;;-0.01;64.08
83104;BME280;72975;48.134;11.630;2024-01-15T11:22:48;94166.91;;;0.00;64.43
83104;BME280;72975;48.134;11.630;2024-01-15T11:25:56;94170.19;;;-0.04;64.27
83104;BME280;72975;48.134;11.630;2024-01-15T11:28:50;94176.88;;;0.14;64.35
83104;BME280;72975;48.134;11.630;2024-01-15T11:34:59;94166.41;;;-0.02;64.26
83104;BME280;72975;48.134;11.630;2024-01-15T11:40:38;94167.72;;;0.18;63.14
83104;BME280;72975;48.134;11.630;2024-01-15T11:43:30;94165.56;;;0.26;63.13
83104;BME280;72975;48.134;11.630;2024-01-15T11:46:42;94170.25;;;0.01;63.69
83104;BME280;72975;48.134;11.630;2024-01-15T11:52:54;94169.84;;;0.21;63.05
83104;BME280;72975;48.134;11.630;2024-01-15T11:56:16;94157.00;;;0.04;63.37
83104;BME280;72975;48.134;11.630;2024-01-15T11:59:18;94157.09;;;0.09;63.44
83104;BME280;72975;48.134;11.630;2024-01-15T12:02:46;94144.50;;;0.24;63.15
83104;BME280;72975;48.134;11.630;2024-01-15T12:05:59;94147.84;;;0.25;62.74
83104;BME280;72975;48.134;11.630;2024-01-15T12:09:08;94140.06;;;0.20;63.22
83104;BME280;72975;48.134;11.630;2024-01-15T12:12:07;94130.19;;;0.28;62.64
83104;BME280;72975;48.134;11.630;2024-01-15T12:15:15;94130.00;;;0.02;63.38
83104;BME280;72975;48.134;11.630;2024-01-15T12:18:07;94125.91;;;0.34;62.74
83104;BME280;72975;48.134;11.630;2024-01-15T12:20:49;94123.69;;;0.21;63.22
83104;BME280;72975;48.134;11.630;2024-01-15T12:23:27;94115.59;;;0.29;62.84
83104;BME280;72975;48.134;11.630;2024-01-15T12:26:02;94116.38;;;0.29;63.10
83104;BME280;72975;48.134;11.630;2024-01-15T12:28:50;94091.63;;;0.40;63.54
83104;BME280;72975;48.134;11.630;2024-01-15T12:31:26;94082.38;;;0.78;62.19
83104;BME280;72975;48.134;11.630;2024-01-15T12:34:18;94066.25;;;0.82;61.97
83104;BME280;72975;48.134;11.630;2024-01-15T12:37:11;94067.50;;;0.80;62.28
83104;BME280;72975;48.134;11.630;2024-01-15T12:42:57;94069.66;;;1.09;61.72
83104;BME280;72975;48.134;11.630;2024-01-15T12:45:46;94073.34;;;1.40;60.78
83104;BME280;72975;48.134;11.630;2024-01-15T12:48:23;94073.75;;;1.05;62.15
83104;BME280;72975;48.134;11.630;2024-01-15T12:50:56;94079.94;;;1.09;62.30
83104;BME280;72975;48.134;11.630;2024-01-15T12:53:36;94085.44;;;0.75;63.04
83104;BME280;72975;48.134;11.630;2024-01-15T12:56:33;94085.31;;;0.86;62.96
83104;BME280;72975;48.134;11.630;2024-01-15T12:59:10;94076.69;;;1.19;62.25
83104;BME280;72975;48.134;11.630;2024-01-15T13:02:01;94070.75;;;1.62;61.18
83104;BME280;72975;48.134;11.630;2024-01-15T13:04:39;94075.13;;;1.67;61.17
83104;BME280;72975;48.134;11.630;2024-01-15T13:07:30;94077.28;;;2.07;60.21
83104;BME280;72975;48.134;11.630;2024-01-15T13:10:02;94065.34;;;1.96;59.75
83104;BME280;72975;48.134;11.630;2024-01-15T13:13:01;94076.06;;;2.14;59.65
83104;BME280;72975;48.134;11.630;2024-01-15T13:15:40;94100.41;;;1.75;61.00
83104;BME280;72975;48.134;11.630;2024-01-15T13:18:34;94097.63;;;2.08;60.46
83104;BME280;72975;48.134;11.630;2024-01-15T13:21:11;94101.03;;;1.87;61.31
83104;BME280;72975;48.134;11.630;2024-01-15T13:23:43;94100.47;;;1.80;61.11
83104;BME280;72975;48.134;11.630;2024-01-15T13:26:35;94027.16;;;1.24;62.11
83104;BME280;72975;48.134;11.630;2024-01-15T13:29:29;94100.69;;;1.52;62.09
83104;BME280;72975;48.134;11.630;2024-01-15T13:32:03;94102.09;;;1.37;62.78
83104;BME280;72975;48.134;11.630;2024-01-15T13:34:33;94104.34;;;1.56;62.48
83104;BME280;72975;48.134;11.630;2024-01-15T13:37:08;94100.19;;;1.28;63.08
83104;BME280;72975;48.134;11.630;2024-01-15T13:40:04;94101.75;;;1.29;63.06
83104;BME280;72975;48.134;11.630;2024-01-15T13:42:40;94099.53;;;1.37;63.09
83104;BME280;72975;48.134;11.630;2024-01-15T13:45:31;94103.88;;;1.37;62.82
83104;BME280;72975;48.134;11.630;2024-01-15T13:48:53;94101.75;;;1.29;63.11
83104;BME280;72975;48.134;11.630;2024-01-15T13:51:53;94106.28;;;1.00;63.49
83104;BME280;72975;48.134;11.630;2024-01-15T13:55:16;94110.25;;;0.69;64.97
83104;BME280;72975;48.134;11.630;2024-01-15T13:58:18;94108.72;;;1.12;63.84
83104;BME280;72975;48.134;11.630;2024-01-15T14:00:53;94102.03;;;0.89;64.03
83104;BME280;72975;48.134;11.630;2024-01-15T14:03:23;94103.16;;;0.98;64.49
83104;BME280;72975;48.134;11.630;2024-01-15T14:06:11;94099.81;;;1.19;63.97
83104;BME280;72975;48.134;11.630;2024-01-15T14:08:53;94092.13;;;0.76;64.53
83104;BME280;72975;48.134;11.630;2024-01-15T14:12:09;94108.47;;;0.91;63.95
83104;BME280;72975;48.134;11.630;2024-01-15T14:15:12;94113.97;;;0.78;65.08
83104;BME280;72975;48.134;11.630;2024-01-15T14:18:14;94110.75;;;0.88;64.12
83104;BME280;72975;48.134;11.630;2024-01-15T14:21:19;94113.03;;;0.67;64.66
83104;BME280;72975;48.134;11.630;2024-01-15T14:24:06;94116.06;;;0.81;64.75
83104;BME280;72975;48.134;11.630;2024-01-15T14:26:55;94115.31;;;0.64;65.53
83104;BME280;72975;48.134;11.630;2024-01-15T14:30:08;94126.69;;;0.90;65.13
83104;BME280;72975;48.134;11.630;2024-01-15T14:33:08;94120.28;;;0.70;65.77
83104;BME280;72975;48.134;11.630;2024-01-15T14:36:02;94122.25;;;0.63;66.46
83104;BME280;72975;48.134;11.630;2024-01-15T14:38:55;94129.06;;;0.75;66.47
83104;BME280;72975;48.134;11.630;2024-01-15T14:41:49;94133.34;;;0.69;65.84
83104;BME280;72975;48.134;11.630;2024-01-15T14:44:36;94131.66;;;0.75;66.02
83104;BME280;72975;48.134;11.630;2024-01-15T14:47:09;94146.72;;;0.54;66.69
83104;BME280;72975;48.134;11.630;2024-01-15T14:49:58;94132.75;;;0.28;67.26
83104;BME280;72975;48.134;11.630;2024-01-15T14:52:35;94146.28;;;0.24;67.22
83104;BME280;72975;48.134;11.630;2024-01-15T14:55:41;94145.44;;;0.18;67.36
83104;BME280;72975;48.134;11.630;2024-01-15T14:59:03;94139.50;;;0.34;67.28
83104;BME280;72975;48.134;11.630;2024-01-15T15:01:54;94138.22;;;0.32;67.20
83104;BME280;72975;48.134;11.630;2024-01-15T15:04:40;94163.38;;;0.35;66.25
83104;BME280;72975;48.134;11.630;2024-01-15T15:07:23;94148.91;;;0.12;66.91
83104;BME280;72975;48.134;11.630;2024-01-15T15:10:11;94149.00;;;0.34;66.14
83104;BME280;72975;48.134;11.630;2024-01-15T15:12:50;94157.31;;;0.08;67.15
83104;BME280;72975;48.134;11.630;2024-01-15T15:15:28;94157.38;;;0.13;66.85
83104;BME280;72975;48.134;11.630;2024-01-15T15:18:12;94167.53;;;-0.09;67.62
83104;BME280;72975;48.134;11.630;2024-01-15T15:20:46;94167.72;;;0.18;67.63
83104;BME280;72975;48.134;11.630;2024-01-15T15:23:39;94171.09;;;0.18;67.88
83104;BME280;72975;48.134;11.630;2024-01-15T15:30:04;94194.56;;;0.10;67.79
83104;BME280;72975;48.134;11.630;2024-01-15T15:32:47;94191.38;;;0.20;67.29
83104;BME280;72975;48.134;11.630;2024-01-15T15:35:27;94194.94;;;0.19;67.35
83104;BME280;72975;48.134;11.630;2024-01-15T15:38:09;94201.41;;;0.21;67.68
83104;BME280;72975;48.134;11.630;2024-01-15T15:41:00;94195.78;;;0.08;67.98
83104;BME280;72975;48.134;11.630;2024-01-15T15:43:57;94193.03;;;-0.03;67.79
83104;BME280;72975;48.134;11.630;2024-01-15T15:46:30;94183.41;;;0.05;68.06
83104;BME280;72975;48.134;11.630;2024-01-15T15:49:55;94209.44;;;-0.04;68.13
83104;BME280;72975;48.134;11.630;2024-01-15T15:52:56;94198.66;;;0.11;67.88
83104;BME280;72975;48.134;11.630;2024-01-15T15:55:36;94210.09;;;0.20;67.83
83104;BME280;72975;48.134;11.630;2024-01-15T15:58:21;94220.03;;;0.17;67.97
83104;BME280;72975;48.134;11.630;2024-01-15T16:01:40;94222.63;;;-0.12;68.66
83104;BME280;72975;48.134;11.630;2024-01-15T16:04:12;94234.06;;;-0.03;69.22
83104;BME280;72975;48.134;11.630;2024-01-15T16:07:02;94229.25;;;0.01;69.60
83104;BME280;72975;48.134;11.630;2024-01-15T16:09:42;94242.06;;;0.01;69.68
83104;BME280;72975;48.134;11.630;2024-01-15T16:12:22;94252.25;;;-0.04;70.35
83104;BME280;72975;48.134;11.630;2024-01-15T16:14:53;94267.69;;;-0.27;71.85
83104;BME280;72975;48.134;11.630;2024-01-15T16:17:46;94256.09;;;-0.30;75.29
83104;BME280;72975;48.134;11.630;2024-01-15T16:20:50;94260.81;;;-0.39;76.72
83104;BME280;72975;48.134;11.630;2024-01-15T16:24:03;94261.72;;;-0.45;77.45